Shiloh Hill, Illinois
Current Conditions -  °F | °C
As of 7:35 AM on Friday 28 Nov 2014 (Local Time) from KSAR Reporting Station
Clear Clear  
Wind Chill: 17°   Ceiling: Unl
Heat Index: 27°   Visibility: 10mi
Dew Point: 24°   Wind: 9mph
Humidity: 90%   Direction: 150°SSE
Pressure: 30.29"   Gusts: NA
Location:  37.9147°N, 89.5934°W
Report Text: KSAR 281335Z AUTO 15008KT 10SM CLR M03/M04 A3029 RMK AO2 T10301044
Loading
Personal Weather Stations






























Interactive Weather Map New forecast layout! Learn more

10-Day Weather Forecast

Advertisements
Track Severe Weather on mobile